sensor_id;sensor_type;location;lat;lon;timestamp;pressure;altitude;pressure_sealevel;temperature;humidity
62201;BME280;48197;42.732;27.192;2023-04-03T00:01:42;99087.00;;;8.69;100.00
62201;BME280;48197;42.732;27.192;2023-04-03T00:04:09;99081.41;;;8.76;100.00
62201;BME280;48197;42.732;27.192;2023-04-03T00:06:36;99080.28;;;8.70;100.00
62201;BME280;48197;42.732;27.192;2023-04-03T00:09:02;99079.97;;;8.61;100.00
62201;BME280;48197;42.732;27.192;2023-04-03T00:11:29;99080.00;;;8.57;100.00
62201;BME280;48197;42.732;27.192;2023-04-03T00:13:56;99073.66;;;8.64;100.00
62201;BME280;48197;42.732;27.192;2023-04-03T00:16:22;99070.56;;;8.58;100.00
62201;BME280;48197;42.732;27.192;2023-04-03T00:18:49;99066.41;;;8.32;100.00
62201;BME280;48197;42.732;27.192;2023-04-03T00:21:15;99063.84;;;8.07;100.00
62201;BME280;48197;42.732;27.192;2023-04-03T00:23:42;99055.34;;;7.84;100.00
62201;BME280;48197;42.732;27.192;2023-04-03T00:26:08;99058.50;;;7.78;100.00
62201;BME280;48197;42.732;27.192;2023-04-03T00:28:35;99049.78;;;7.91;100.00
62201;BME280;48197;42.732;27.192;2023-04-03T00:31:02;99049.69;;;8.05;100.00
62201;BME280;48197;42.732;27.192;2023-04-03T00:33:29;99049.53;;;8.27;100.00
62201;BME280;48197;42.732;27.192;2023-04-03T00:35:56;99052.44;;;8.61;100.00
62201;BME280;48197;42.732;27.192;2023-04-03T00:38:22;99059.91;;;8.64;100.00
62201;BME280;48197;42.732;27.192;2023-04-03T00:40:49;99059.63;;;8.48;100.00
62201;BME280;48197;42.732;27.192;2023-04-03T00:43:25;99055.81;;;8.27;100.00
62201;BME280;48197;42.732;27.192;2023-04-03T00:45:53;99052.91;;;7.89;100.00
62201;BME280;48197;42.732;27.192;2023-04-03T00:48:30;99048.75;;;7.63;100.00
62201;BME280;48197;42.732;27.192;2023-04-03T00:50:58;99049.16;;;7.62;100.00
62201;BME280;48197;42.732;27.192;2023-04-03T00:53:31;99051.50;;;7.63;100.00
62201;BME280;48197;42.732;27.192;2023-04-03T00:55:58;99055.91;;;7.50;100.00
62201;BME280;48197;42.732;27.192;2023-04-03T00:58:33;99063.38;;;7.46;100.00
62201;BME280;48197;42.732;27.192;2023-04-03T01:01:00;99055.94;;;7.43;100.00
62201;BME280;48197;42.732;27.192;2023-04-03T01:03:30;99055.50;;;7.51;100.00
62201;BME280;48197;42.732;27.192;2023-04-03T01:05:57;99064.09;;;7.57;100.00
62201;BME280;48197;42.732;27.192;2023-04-03T01:08:24;99067.19;;;7.73;100.00
62201;BME280;48197;42.732;27.192;2023-04-03T01:10:50;99076.59;;;7.80;100.00
62201;BME280;48197;42.732;27.192;2023-04-03T01:13:21;99086.38;;;7.81;100.00
62201;BME280;48197;42.732;27.192;2023-04-03T01:15:48;99086.91;;;7.57;100.00
62201;BME280;48197;42.732;27.192;2023-04-03T01:18:15;99089.31;;;7.41;100.00
62201;BME280;48197;42.732;27.192;2023-04-03T01:20:50;99092.47;;;7.36;100.00
62201;BME280;48197;42.732;27.192;2023-04-03T01:23:25;99084.94;;;7.54;100.00
62201;BME280;48197;42.732;27.192;2023-04-03T01:25:54;99081.41;;;7.54;100.00
62201;BME280;48197;42.732;27.192;2023-04-03T01:28:22;99073.94;;;7.54;100.00
62201;BME280;48197;42.732;27.192;2023-04-03T01:33:16;99076.34;;;7.45;100.00
62201;BME280;48197;42.732;27.192;2023-04-03T01:35:42;99078.31;;;7.41;100.00
62201;BME280;48197;42.732;27.192;2023-04-03T01:38:09;99071.28;;;7.29;100.00
62201;BME280;48197;42.732;27.192;2023-04-03T01:40:36;99062.72;;;7.13;100.00
62201;BME280;48197;42.732;27.192;2023-04-03T01:43:02;99073.72;;;7.09;100.00
62201;BME280;48197;42.732;27.192;2023-04-03T01:45:29;99075.63;;;7.34;100.00
62201;BME280;48197;42.732;27.192;2023-04-03T01:47:56;99068.78;;;7.64;100.00
62201;BME280;48197;42.732;27.192;2023-04-03T01:50:22;99072.69;;;7.73;100.00
62201;BME280;48197;42.732;27.192;2023-04-03T01:52:48;99083.75;;;7.59;100.00
62201;BME280;48197;42.732;27.192;2023-04-03T01:55:15;99085.00;;;7.40;100.00
62201;BME280;48197;42.732;27.192;2023-04-03T01:57:41;99083.06;;;7.37;100.00
62201;BME280;48197;42.732;27.192;2023-04-03T02:00:08;99084.63;;;7.31;100.00
62201;BME280;48197;42.732;27.192;2023-04-03T02:02:35;99085.84;;;7.23;100.00
62201;BME280;48197;42.732;27.192;2023-04-03T02:05:02;99078.38;;;7.30;100.00
62201;BME280;48197;42.732;27.192;2023-04-03T02:07:29;99076.81;;;7.22;100.00
62201;BME280;48197;42.732;27.192;2023-04-03T02:09:55;99073.28;;;7.18;100.00
62201;BME280;48197;42.732;27.192;2023-04-03T02:12:22;99073.69;;;7.16;100.00
62201;BME280;48197;42.732;27.192;2023-04-03T02:14:48;99075.63;;;7.27;100.00
62201;BME280;48197;42.732;27.192;2023-04-03T02:17:14;99074.41;;;7.39;100.00
62201;BME280;48197;42.732;27.192;2023-04-03T02:19:41;99076.31;;;7.56;100.00
62201;BME280;48197;42.732;27.192;2023-04-03T02:22:08;99075.09;;;7.64;100.00
62201;BME280;48197;42.732;27.192;2023-04-03T02:24:35;99078.19;;;7.70;100.00
62201;BME280;48197;42.732;27.192;2023-04-03T02:27:01;99070.31;;;7.72;100.00
62201;BME280;48197;42.732;27.192;2023-04-03T02:29:28;99066.44;;;7.62;100.00
62201;BME280;48197;42.732;27.192;2023-04-03T02:31:54;99068.47;;;7.47;100.00
62201;BME280;48197;42.732;27.192;2023-04-03T02:34:21;99075.19;;;7.39;100.00
62201;BME280;48197;42.732;27.192;2023-04-03T02:36:47;99075.19;;;7.39;100.00
62201;BME280;48197;42.732;27.192;2023-04-03T02:39:14;99074.84;;;7.30;100.00
62201;BME280;48197;42.732;27.192;2023-04-03T02:41:42;99076.03;;;7.14;100.00
62201;BME280;48197;42.732;27.192;2023-04-03T02:44:09;99076.47;;;6.95;100.00
62201;BME280;48197;42.732;27.192;2023-04-03T02:46:36;99083.16;;;6.87;100.00
62201;BME280;48197;42.732;27.192;2023-04-03T02:49:03;99081.59;;;6.86;100.00
62201;BME280;48197;42.732;27.192;2023-04-03T02:51:30;99097.31;;;6.85;100.00
62201;BME280;48197;42.732;27.192;2023-04-03T02:53:56;99104.38;;;6.75;100.00
62201;BME280;48197;42.732;27.192;2023-04-03T02:56:22;99110.28;;;6.70;100.00
62201;BME280;48197;42.732;27.192;2023-04-03T02:58:48;99099.66;;;6.69;100.00
62201;BME280;48197;42.732;27.192;2023-04-03T03:01:15;99103.19;;;6.73;100.00
62201;BME280;48197;42.732;27.192;2023-04-03T03:03:41;99104.75;;;6.78;100.00
62201;BME280;48197;42.732;27.192;2023-04-03T03:06:09;99106.72;;;6.88;100.00
62201;BME280;48197;42.732;27.192;2023-04-03T03:08:37;99106.72;;;6.91;100.00
62201;BME280;48197;42.732;27.192;2023-04-03T03:11:03;99103.56;;;6.97;100.00
62201;BME280;48197;42.732;27.192;2023-04-03T03:13:30;99104.75;;;7.03;100.00
62201;BME280;48197;42.732;27.192;2023-04-03T03:15:57;99096.88;;;7.08;100.00
62201;BME280;48197;42.732;27.192;2023-04-03T03:18:23;99098.81;;;7.26;100.00
62201;BME280;48197;42.732;27.192;2023-04-03T03:20:54;99104.22;;;7.40;100.00
62201;BME280;48197;42.732;27.192;2023-04-03T03:23:21;99101.09;;;7.42;100.00
62201;BME280;48197;42.732;27.192;2023-04-03T03:25:48;99097.19;;;7.39;100.00
62201;BME280;48197;42.732;27.192;2023-04-03T03:28:17;99096.38;;;7.42;100.00
62201;BME280;48197;42.732;27.192;2023-04-03T03:30:44;99100.31;;;7.41;100.00
62201;BME280;48197;42.732;27.192;2023-04-03T03:33:11;99104.25;;;7.36;100.00
62201;BME280;48197;42.732;27.192;2023-04-03T03:35:37;99106.22;;;7.36;100.00
62201;BME280;48197;42.732;27.192;2023-04-03T03:38:04;99105.03;;;7.37;100.00
62201;BME280;48197;42.732;27.192;2023-04-03T03:40:30;99102.69;;;7.35;100.00
62201;BME280;48197;42.732;27.192;2023-04-03T03:42:57;99102.28;;;7.33;100.00
62201;BME280;48197;42.732;27.192;2023-04-03T03:45:23;99110.19;;;7.28;100.00
62201;BME280;48197;42.732;27.192;2023-04-03T03:47:50;99120.00;;;7.22;100.00
62201;BME280;48197;42.732;27.192;2023-04-03T03:50:17;99117.25;;;7.14;100.00
62201;BME280;48197;42.732;27.192;2023-04-03T03:52:43;99113.75;;;7.03;100.00
62201;BME280;48197;42.732;27.192;2023-04-03T03:55:10;99110.66;;;6.94;100.00
62201;BME280;48197;42.732;27.192;2023-04-03T03:57:37;99111.84;;;6.79;100.00
62201;BME280;48197;42.732;27.192;2023-04-03T04:00:03;99112.63;;;6.68;100.00
62201;BME280;48197;42.732;27.192;2023-04-03T04:02:30;99110.66;;;6.54;100.00
62201;BME280;48197;42.732;27.192;2023-04-03T04:04:56;99117.69;;;6.38;100.00
62201;BME280;48197;42.732;27.192;2023-04-03T04:07:23;99105.94;;;6.30;100.00
62201;BME280;48197;42.732;27.192;2023-04-03T04:09:50;99111.81;;;6.25;100.00
62201;BME280;48197;42.732;27.192;2023-04-03T04:12:16;99106.72;;;6.20;100.00
62201;BME280;48197;42.732;27.192;2023-04-03T04:14:43;99111.81;;;6.25;100.00
62201;BME280;48197;42.732;27.192;2023-04-03T04:17:13;99109.09;;;6.32;100.00
62201;BME280;48197;42.732;27.192;2023-04-03T04:19:40;99103.22;;;6.55;100.00
62201;BME280;48197;42.732;27.192;2023-04-03T04:22:06;99111.03;;;6.82;100.00
62201;BME280;48197;42.732;27.192;2023-04-03T04:24:33;99112.97;;;7.03;100.00
62201;BME280;48197;42.732;27.192;2023-04-03T04:27:00;99102.34;;;7.15;100.00
62201;BME280;48197;42.732;27.192;2023-04-03T04:29:26;99110.53;;;7.37;100.00
62201;BME280;48197;42.732;27.192;2023-04-03T04:31:53;99111.63;;;7.61;100.00
62201;BME280;48197;42.732;27.192;2023-04-03T04:34:20;99108.81;;;7.79;100.00
62201;BME280;48197;42.732;27.192;2023-04-03T04:36:46;99108.75;;;7.90;100.00
62201;BME280;48197;42.732;27.192;2023-04-03T04:39:13;99103.22;;;7.93;100.00
62201;BME280;48197;42.732;27.192;2023-04-03T04:41:40;99110.69;;;7.93;100.00
62201;BME280;48197;42.732;27.192;2023-04-03T04:44:06;99103.25;;;7.86;100.00
62201;BME280;48197;42.732;27.192;2023-04-03T04:46:33;99101.69;;;7.89;100.00
62201;BME280;48197;42.732;27.192;2023-04-03T04:49:00;99101.63;;;8.00;100.00
62201;BME280;48197;42.732;27.192;2023-04-03T04:51:26;99109.41;;;8.12;100.00
62201;BME280;48197;42.732;27.192;2023-04-03T04:53:52;99110.09;;;8.27;100.00
62201;BME280;48197;42.732;27.192;2023-04-03T04:56:19;99107.28;;;8.34;100.00
62201;BME280;48197;42.732;27.192;2023-04-03T04:58:47;99117.91;;;8.35;100.00
62201;BME280;48197;42.732;27.192;2023-04-03T05:01:13;99116.34;;;8.34;100.00
62201;BME280;48197;42.732;27.192;2023-04-03T05:03:40;99115.56;;;8.34;100.00
62201;BME280;48197;42.732;27.192;2023-04-03T05:06:07;99116.31;;;8.38;100.00
62201;BME280;48197;42.732;27.192;2023-04-03T05:08:34;99123.38;;;8.46;100.00
62201;BME280;48197;42.732;27.192;2023-04-03T05:11:00;99126.78;;;8.65;100.00
62201;BME280;48197;42.732;27.192;2023-04-03T05:13:27;99137.34;;;8.70;100.00
62201;BME280;48197;42.732;27.192;2023-04-03T05:15:53;99152.00;;;8.59;100.00
62201;BME280;48197;42.732;27.192;2023-04-03T05:18:20;99144.94;;;8.55;100.00
62201;BME280;48197;42.732;27.192;2023-04-03T05:20:48;99150.94;;;8.43;100.00
62201;BME280;48197;42.732;27.192;2023-04-03T05:23:14;99153.31;;;8.33;100.00
62201;BME280;48197;42.732;27.192;2023-04-03T05:25:41;99158.06;;;8.33;100.00
62201;BME280;48197;42.732;27.192;2023-04-03T05:28:10;99161.56;;;8.41;100.00
62201;BME280;48197;42.732;27.192;2023-04-03T05:30:36;99168.19;;;8.50;100.00
62201;BME280;48197;42.732;27.192;2023-04-03T05:33:05;99175.16;;;8.66;100.00
62201;BME280;48197;42.732;27.192;2023-04-03T05:35:32;99181.22;;;8.98;100.00
62201;BME280;48197;42.732;27.192;2023-04-03T05:37:58;99187.22;;;9.31;100.00
62201;BME280;48197;42.732;27.192;2023-04-03T05:40:25;99201.72;;;9.77;100.00
62201;BME280;48197;42.732;27.192;2023-04-03T05:42:52;99204.91;;;10.10;100.00
62201;BME280;48197;42.732;27.192;2023-04-03T05:45:19;99203.28;;;10.43;100.00
62201;BME280;48197;42.732;27.192;2023-04-03T05:47:46;99206.56;;;10.65;100.00
62201;BME280;48197;42.732;27.192;2023-04-03T05:50:13;99201.16;;;10.81;100.00
62201;BME280;48197;42.732;27.192;2023-04-03T05:52:41;99209.59;;;11.21;100.00
62201;BME280;48197;42.732;27.192;2023-04-03T05:55:09;99208.81;;;11.64;100.00
62201;BME280;48197;42.732;27.192;2023-04-03T05:57:36;99221.75;;;12.15;100.00
62201;BME280;48197;42.732;27.192;2023-04-03T06:00:03;99218.41;;;12.93;100.00
62201;BME280;48197;42.732;27.192;2023-04-03T06:02:31;99217.72;;;14.13;96.44
62201;BME280;48197;42.732;27.192;2023-04-03T06:04:58;99218.50;;;14.94;89.74
62201;BME280;48197;42.732;27.192;2023-04-03T06:07:24;99215.13;;;15.46;84.48
62201;BME280;48197;42.732;27.192;2023-04-03T06:09:55;99205.81;;;15.97;81.85
62201;BME280;48197;42.732;27.192;2023-04-03T06:12:22;99207.94;;;16.37;79.75
62201;BME280;48197;42.732;27.192;2023-04-03T06:14:48;99216.50;;;16.21;79.14
62201;BME280;48197;42.732;27.192;2023-04-03T06:17:15;99214.31;;;15.71;79.33
62201;BME280;48197;42.732;27.192;2023-04-03T06:19:44;99214.03;;;15.44;81.02
62201;BME280;48197;42.732;27.192;2023-04-03T06:22:10;99205.03;;;15.40;79.94
62201;BME280;48197;42.732;27.192;2023-04-03T06:24:37;99204.00;;;15.46;79.24
62201;BME280;48197;42.732;27.192;2023-04-03T06:27:04;99202.91;;;15.44;77.91
62201;BME280;48197;42.732;27.192;2023-04-03T06:29:30;99209.06;;;15.74;76.93
62201;BME280;48197;42.732;27.192;2023-04-03T06:31:56;99204.03;;;15.81;76.49
62201;BME280;48197;42.732;27.192;2023-04-03T06:34:22;99210.75;;;15.93;75.22
62201;BME280;48197;42.732;27.192;2023-04-03T06:36:49;99207.31;;;15.89;74.35
62201;BME280;48197;42.732;27.192;2023-04-03T06:39:20;99206.28;;;15.74;74.64
62201;BME280;48197;42.732;27.192;2023-04-03T06:41:48;99211.19;;;15.91;75.77
62201;BME280;48197;42.732;27.192;2023-04-03T06:44:14;99212.38;;;16.03;75.12
62201;BME280;48197;42.732;27.192;2023-04-03T06:46:42;99205.59;;;16.36;75.19
62201;BME280;48197;42.732;27.192;2023-04-03T06:49:09;99215.69;;;16.64;73.69
62201;BME280;48197;42.732;27.192;2023-04-03T06:51:38;99215.31;;;16.93;72.01
62201;BME280;48197;42.732;27.192;2023-04-03T06:54:08;99213.25;;;17.34;70.27
62201;BME280;48197;42.732;27.192;2023-04-03T06:56:35;99216.28;;;17.86;66.36
62201;BME280;48197;42.732;27.192;2023-04-03T06:59:02;99212.53;;;17.89;65.33
62201;BME280;48197;42.732;27.192;2023-04-03T07:01:29;99202.13;;;17.99;64.79
62201;BME280;48197;42.732;27.192;2023-04-03T07:03:57;99212.59;;;18.41;63.00
62201;BME280;48197;42.732;27.192;2023-04-03T07:06:24;99219.91;;;18.48;60.93
62201;BME280;48197;42.732;27.192;2023-04-03T07:08:52;99226.47;;;18.17;60.42
62201;BME280;48197;42.732;27.192;2023-04-03T07:11:20;99235.06;;;17.95;59.22
62201;BME280;48197;42.732;27.192;2023-04-03T07:13:46;99235.97;;;17.83;55.53
62201;BME280;48197;42.732;27.192;2023-04-03T07:16:13;99238.41;;;17.62;56.83
62201;BME280;48197;42.732;27.192;2023-04-03T07:18:40;99235.47;;;17.47;56.01
62201;BME280;48197;42.732;27.192;2023-04-03T07:21:07;99239.59;;;17.15;55.33
62201;BME280;48197;42.732;27.192;2023-04-03T07:23:33;99232.53;;;17.60;55.55
62201;BME280;48197;42.732;27.192;2023-04-03T07:26:00;99229.28;;;17.43;55.05
62201;BME280;48197;42.732;27.192;2023-04-03T07:28:27;99231.44;;;16.89;56.22
62201;BME280;48197;42.732;27.192;2023-04-03T07:31:00;99234.31;;;16.77;57.66
62201;BME280;48197;42.732;27.192;2023-04-03T07:33:27;99242.47;;;16.93;57.29
62201;BME280;48197;42.732;27.192;2023-04-03T07:35:54;99235.91;;;17.37;57.00
62201;BME280;48197;42.732;27.192;2023-04-03T07:38:20;99231.63;;;17.91;54.55
62201;BME280;48197;42.732;27.192;2023-04-03T07:40:47;99244.50;;;18.07;54.81
62201;BME280;48197;42.732;27.192;2023-04-03T07:43:15;99249.72;;;18.51;52.24
62201;BME280;48197;42.732;27.192;2023-04-03T07:45:42;99241.81;;;19.01;51.23
62201;BME280;48197;42.732;27.192;2023-04-03T07:48:10;99257.41;;;19.50;50.58
62201;BME280;48197;42.732;27.192;2023-04-03T07:50:37;99255.25;;;20.08;49.29
62201;BME280;48197;42.732;27.192;2023-04-03T07:53:05;99250.03;;;20.31;49.11
62201;BME280;48197;42.732;27.192;2023-04-03T07:55:32;99240.19;;;19.82;47.07
62201;BME280;48197;42.732;27.192;2023-04-03T07:57:58;99254.25;;;19.24;48.64
62201;BME280;48197;42.732;27.192;2023-04-03T08:00:25;99254.94;;;18.76;49.74
62201;BME280;48197;42.732;27.192;2023-04-03T08:02:52;99251.44;;;18.48;50.38
62201;BME280;48197;42.732;27.192;2023-04-03T08:05:18;99251.63;;;18.35;51.88
62201;BME280;48197;42.732;27.192;2023-04-03T08:07:45;99259.56;;;17.82;51.77
62201;BME280;48197;42.732;27.192;2023-04-03T08:10:10;99267.66;;;17.80;52.61
62201;BME280;48197;42.732;27.192;2023-04-03T08:12:38;99266.44;;;17.99;51.84
62201;BME280;48197;42.732;27.192;2023-04-03T08:15:05;99267.03;;;18.12;52.17
62201;BME280;48197;42.732;27.192;2023-04-03T08:17:34;99263.72;;;18.51;51.23
62201;BME280;48197;42.732;27.192;2023-04-03T08:20:01;99259.69;;;18.94;51.04
62201;BME280;48197;42.732;27.192;2023-04-03T08:22:29;99256.13;;;19.27;49.93
62201;BME280;48197;42.732;27.192;2023-04-03T08:24:55;99262.88;;;19.11;50.15
62201;BME280;48197;42.732;27.192;2023-04-03T08:27:22;99258.72;;;19.07;50.14
62201;BME280;48197;42.732;27.192;2023-04-03T08:29:49;99258.66;;;19.16;48.81
62201;BME280;48197;42.732;27.192;2023-04-03T08:32:15;99255.16;;;19.30;48.16
62201;BME280;48197;42.732;27.192;2023-04-03T08:34:41;99264.13;;;19.68;48.25
62201;BME280;48197;42.732;27.192;2023-04-03T08:37:08;99264.06;;;19.53;48.30
62201;BME280;48197;42.732;27.192;2023-04-03T08:39:35;99264.00;;;19.14;48.51
62201;BME280;48197;42.732;27.192;2023-04-03T08:42:03;99253.78;;;19.26;48.49
62201;BME280;48197;42.732;27.192;2023-04-03T08:44:46;99251.50;;;19.72;47.58
62201;BME280;48197;42.732;27.192;2023-04-03T08:47:28;99251.53;;;19.87;47.32
62201;BME280;48197;42.732;27.192;2023-04-03T08:50:02;99240.28;;;20.41;47.24
62201;BME280;48197;42.732;27.192;2023-04-03T08:57:41;99233.91;;;21.82;40.33
62201;BME280;48197;42.732;27.192;2023-04-03T09:00:20;99233.22;;;20.60;42.62
62201;BME280;48197;42.732;27.192;2023-04-03T09:02:52;99233.72;;;20.29;43.21
62201;BME280;48197;42.732;27.192;2023-04-03T09:05:31;99236.88;;;20.22;43.04
62201;BME280;48197;42.732;27.192;2023-04-03T09:08:00;99238.38;;;19.78;43.65
62201;BME280;48197;42.732;27.192;2023-04-03T09:10:32;99222.63;;;19.96;44.00
62201;BME280;48197;42.732;27.192;2023-04-03T09:13:01;99230.34;;;19.86;43.90
62201;BME280;48197;42.732;27.192;2023-04-03T09:15:31;99224.69;;;19.95;43.10
62201;BME280;48197;42.732;27.192;2023-04-03T09:18:04;99219.44;;;20.03;42.14
62201;BME280;48197;42.732;27.192;2023-04-03T09:20:37;99219.25;;;20.07;42.14
62201;BME280;48197;42.732;27.192;2023-04-03T09:25:51;99210.97;;;20.27;41.46
62201;BME280;48197;42.732;27.192;2023-04-03T09:28:20;99218.97;;;20.49;41.01
62201;BME280;48197;42.732;27.192;2023-04-03T09:30:47;99212.91;;;20.51;40.98
62201;BME280;48197;42.732;27.192;2023-04-03T09:33:13;99211.44;;;20.55;41.60
62201;BME280;48197;42.732;27.192;2023-04-03T09:35:40;99211.75;;;20.57;41.94
62201;BME280;48197;42.732;27.192;2023-04-03T19:23:32;99033.53;;;9.66;100.00
62201;BME280;48197;42.732;27.192;2023-04-03T19:26:03;99018.25;;;9.58;100.00
62201;BME280;48197;42.732;27.192;2023-04-03T19:28:29;99017.41;;;9.65;100.00
62201;BME280;48197;42.732;27.192;2023-04-03T19:30:56;99018.84;;;9.73;100.00
62201;BME280;48197;42.732;27.192;2023-04-03T19:33:23;99024.38;;;9.73;100.00
62201;BME280;48197;42.732;27.192;2023-04-03T19:35:50;99012.63;;;9.69;100.00
62201;BME280;48197;42.732;27.192;2023-04-03T19:38:17;99011.78;;;9.72;100.00
62201;BME280;48197;42.732;27.192;2023-04-03T19:40:43;99007.34;;;9.78;100.00
62201;BME280;48197;42.732;27.192;2023-04-03T19:43:11;98986.81;;;9.79;100.00
62201;BME280;48197;42.732;27.192;2023-04-03T19:45:38;98995.53;;;9.77;100.00
62201;BME280;48197;42.732;27.192;2023-04-03T19:48:05;99009.72;;;9.79;100.00
62201;BME280;48197;42.732;27.192;2023-04-03T19:50:32;98995.06;;;9.82;100.00
62201;BME280;48197;42.732;27.192;2023-04-03T19:52:59;99004.56;;;9.81;100.00
62201;BME280;48197;42.732;27.192;2023-04-03T19:55:26;99001.44;;;9.79;100.00
62201;BME280;48197;42.732;27.192;2023-04-03T19:57:59;99003.03;;;9.77;100.00
62201;BME280;48197;42.732;27.192;2023-04-03T20:00:27;98994.28;;;9.82;100.00
62201;BME280;48197;42.732;27.192;2023-04-03T20:02:54;99006.06;;;9.86;100.00
62201;BME280;48197;42.732;27.192;2023-04-03T20:05:20;99000.00;;;9.95;100.00
62201;BME280;48197;42.732;27.192;2023-04-03T20:07:47;98982.97;;;10.00;100.00
62201;BME280;48197;42.732;27.192;2023-04-03T20:10:14;98990.72;;;10.09;100.00
62201;BME280;48197;42.732;27.192;2023-04-03T20:12:41;98992.94;;;10.17;100.00
62201;BME280;48197;42.732;27.192;2023-04-03T20:15:08;98992.13;;;10.20;100.00
62201;BME280;48197;42.732;27.192;2023-04-03T20:17:35;98992.84;;;10.25;100.00
62201;BME280;48197;42.732;27.192;2023-04-03T20:20:01;98995.53;;;10.28;100.00
62201;BME280;48197;42.732;27.192;2023-04-03T20:22:29;98993.63;;;10.25;100.00
62201;BME280;48197;42.732;27.192;2023-04-03T20:24:56;98986.50;;;10.24;100.00
62201;BME280;48197;42.732;27.192;2023-04-03T20:27:23;98998.41;;;10.21;100.00
62201;BME280;48197;42.732;27.192;2023-04-03T20:29:49;99003.94;;;10.21;100.00
62201;BME280;48197;42.732;27.192;2023-04-03T20:32:16;99013.91;;;10.15;100.00
62201;BME280;48197;42.732;27.192;2023-04-03T20:34:43;99004.53;;;10.09;100.00
62201;BME280;48197;42.732;27.192;2023-04-03T20:37:10;99000.00;;;9.95;100.00
62201;BME280;48197;42.732;27.192;2023-04-03T20:39:36;98999.72;;;9.86;100.00
62201;BME280;48197;42.732;27.192;2023-04-03T20:42:02;98993.88;;;9.84;100.00
62201;BME280;48197;42.732;27.192;2023-04-03T20:44:29;99000.19;;;9.84;100.00
62201;BME280;48197;42.732;27.192;2023-04-03T20:46:56;98989.59;;;9.79;100.00
62201;BME280;48197;42.732;27.192;2023-04-03T20:49:23;98982.56;;;9.74;100.00
62201;BME280;48197;42.732;27.192;2023-04-03T20:51:51;98968.47;;;9.69;100.00
62201;BME280;48197;42.732;27.192;2023-04-03T20:54:17;98964.19;;;9.64;100.00
62201;BME280;48197;42.732;27.192;2023-04-03T20:56:44;98986.69;;;9.63;100.00
62201;BME280;48197;42.732;27.192;2023-04-03T20:59:13;98974.06;;;9.61;100.00
62201;BME280;48197;42.732;27.192;2023-04-03T21:01:40;98982.69;;;9.67;100.00
62201;BME280;48197;42.732;27.192;2023-04-03T21:04:11;98974.03;;;9.65;100.00
62201;BME280;48197;42.732;27.192;2023-04-03T21:20:23;98992.44;;;9.45;100.00
62201;BME280;48197;42.732;27.192;2023-04-03T21:22:50;98981.41;;;9.45;100.00
62201;BME280;48197;42.732;27.192;2023-04-03T21:25:17;98980.25;;;9.42;100.00
62201;BME280;48197;42.732;27.192;2023-04-03T21:27:43;98972.75;;;9.43;100.00
62201;BME280;48197;42.732;27.192;2023-04-03T21:30:10;98984.94;;;9.45;100.00
62201;BME280;48197;42.732;27.192;2023-04-03T21:32:37;98985.38;;;9.44;100.00
62201;BME280;48197;42.732;27.192;2023-04-03T21:35:03;98975.09;;;9.44;100.00
62201;BME280;48197;42.732;27.192;2023-04-03T21:37:32;98984.91;;;9.49;100.00
62201;BME280;48197;42.732;27.192;2023-04-03T21:39:59;98975.84;;;9.48;100.00
62201;BME280;48197;42.732;27.192;2023-04-03T21:42:26;98967.09;;;9.53;100.00
62201;BME280;48197;42.732;27.192;2023-04-03T21:44:53;98979.22;;;9.59;100.00
62201;BME280;48197;42.732;27.192;2023-04-03T21:47:20;98974.44;;;9.64;100.00
62201;BME280;48197;42.732;27.192;2023-04-03T21:49:46;98985.47;;;9.64;100.00
62201;BME280;48197;42.732;27.192;2023-04-03T21:52:13;98979.59;;;9.61;100.00
62201;BME280;48197;42.732;27.192;2023-04-03T21:54:39;98971.31;;;9.61;100.00
62201;BME280;48197;42.732;27.192;2023-04-03T21:57:07;98974.13;;;9.58;100.00
62201;BME280;48197;42.732;27.192;2023-04-03T21:59:36;98964.66;;;9.59;100.00
62201;BME280;48197;42.732;27.192;2023-04-03T22:02:03;98958.38;;;9.58;100.00
62201;BME280;48197;42.732;27.192;2023-04-03T22:04:30;98936.75;;;9.53;100.00
62201;BME280;48197;42.732;27.192;2023-04-03T22:06:56;98932.47;;;9.49;100.00
62201;BME280;48197;42.732;27.192;2023-04-03T22:09:23;98937.34;;;9.41;100.00
62201;BME280;48197;42.732;27.192;2023-04-03T22:11:49;98912.56;;;9.37;100.00
62201;BME280;48197;42.732;27.192;2023-04-03T22:14:16;98926.75;;;9.36;100.00
62201;BME280;48197;42.732;27.192;2023-04-03T22:16:43;98935.03;;;9.36;100.00
62201;BME280;48197;42.732;27.192;2023-04-03T22:19:13;98940.94;;;9.34;100.00
62201;BME280;48197;42.732;27.192;2023-04-03T22:21:41;98924.88;;;9.29;100.00
62201;BME280;48197;42.732;27.192;2023-04-03T22:24:08;98937.53;;;9.27;100.00
62201;BME280;48197;42.732;27.192;2023-04-03T22:26:35;98922.63;;;9.20;100.00
62201;BME280;48197;42.732;27.192;2023-04-03T22:29:01;98917.91;;;9.21;100.00
62201;BME280;48197;42.732;27.192;2023-04-03T22:31:28;98923.53;;;9.14;100.00
62201;BME280;48197;42.732;27.192;2023-04-03T22:33:55;98927.09;;;9.11;100.00
62201;BME280;48197;42.732;27.192;2023-04-03T22:36:21;98919.69;;;9.04;100.00
62201;BME280;48197;42.732;27.192;2023-04-03T22:38:48;98915.78;;;9.02;100.00
62201;BME280;48197;42.732;27.192;2023-04-03T22:41:17;98904.44;;;8.96;100.00
62201;BME280;48197;42.732;27.192;2023-04-03T22:43:43;98900.13;;;8.95;100.00
62201;BME280;48197;42.732;27.192;2023-04-03T22:46:10;98884.06;;;8.90;100.00
62201;BME280;48197;42.732;27.192;2023-04-03T22:48:39;98906.16;;;8.86;100.00
62201;BME280;48197;42.732;27.192;2023-04-03T22:51:05;98886.09;;;8.86;100.00
62201;BME280;48197;42.732;27.192;2023-04-03T22:53:32;98892.78;;;8.85;100.00
62201;BME280;48197;42.732;27.192;2023-04-03T22:56:00;98892.78;;;8.85;100.00
62201;BME280;48197;42.732;27.192;2023-04-03T22:58:27;98891.22;;;8.84;100.00
62201;BME280;48197;42.732;27.192;2023-04-03T23:00:54;98891.91;;;8.91;100.00